EmailTwitter


Surface observations / United Kingdom / EGLL (03772)

Regions: Quebec | Canada | USA | Europe | France | UK | Elsewhere
Station
Display
Info & Location for EGLL (03772) | Help decoding METAR

Weather Conditions observed on 2017/03/25 at 19:20 UTC at LONDON/HEATHROW, UK (EGLL)

Temperature: 10.0 Celsius.

Dewpoint: -6.0 Celsius.

Relative Humidity: 32%

Windchill Factor: 8.

Winds: Northeast at 17 km/h or 9 knots.

Mean Sea level Pressure: 102.60 kilopascals.

Horizontal visibility: 6.21 statute miles or 9.94 kilometers.

Coded METAR:

EGLL 251920Z AUTO 05009KT 9999 NCD 10/M06 Q1026=